sensor_id;sensor_type;location;lat;lon;timestamp;P1;durP1;ratioP1;P2;durP2;ratioP2
10987;SDS011;5547;42.672;23.230;2023-09-18T00:01:40;37.10;;;21.50;;
10987;SDS011;5547;42.672;23.230;2023-09-18T00:04:40;34.92;;;20.88;;
10987;SDS011;5547;42.672;23.230;2023-09-18T00:07:44;37.27;;;20.97;;
10987;SDS011;5547;42.672;23.230;2023-09-18T00:10:54;38.15;;;21.02;;
10987;SDS011;5547;42.672;23.230;2023-09-18T00:13:55;37.47;;;21.60;;
10987;SDS011;5547;42.672;23.230;2023-09-18T00:16:55;48.00;;;23.40;;
10987;SDS011;5547;42.672;23.230;2023-09-18T00:19:57;41.27;;;22.23;;
10987;SDS011;5547;42.672;23.230;2023-09-18T00:22:57;41.40;;;22.42;;
10987;SDS011;5547;42.672;23.230;2023-09-18T00:25:58;37.60;;;21.67;;
10987;SDS011;5547;42.672;23.230;2023-09-18T00:28:58;37.20;;;21.27;;
10987;SDS011;5547;42.672;23.230;2023-09-18T00:31:59;34.43;;;20.40;;
10987;SDS011;5547;42.672;23.230;2023-09-18T00:34:59;34.37;;;20.20;;
10987;SDS011;5547;42.672;23.230;2023-09-18T00:37:59;38.90;;;22.20;;
10987;SDS011;5547;42.672;23.230;2023-09-18T00:41:03;36.03;;;21.05;;
10987;SDS011;5547;42.672;23.230;2023-09-18T00:44:06;38.47;;;22.17;;
10987;SDS011;5547;42.672;23.230;2023-09-18T00:47:07;42.00;;;22.63;;
10987;SDS011;5547;42.672;23.230;2023-09-18T00:50:08;37.90;;;22.20;;
10987;SDS011;5547;42.672;23.230;2023-09-18T00:56:15;37.47;;;21.57;;
10987;SDS011;5547;42.672;23.230;2023-09-18T00:59:17;34.67;;;21.23;;
10987;SDS011;5547;42.672;23.230;2023-09-18T01:02:52;36.45;;;22.73;;
10987;SDS011;5547;42.672;23.230;2023-09-18T01:05:53;37.17;;;22.60;;
10987;SDS011;5547;42.672;23.230;2023-09-18T01:08:55;38.40;;;23.02;;
10987;SDS011;5547;42.672;23.230;2023-09-18T01:12:08;38.47;;;24.13;;
10987;SDS011;5547;42.672;23.230;2023-09-18T01:15:22;37.15;;;24.38;;
10987;SDS011;5547;42.672;23.230;2023-09-18T01:18:27;36.00;;;22.80;;
10987;SDS011;5547;42.672;23.230;2023-09-18T01:21:30;35.33;;;23.33;;
10987;SDS011;5547;42.672;23.230;2023-09-18T01:24:32;39.23;;;24.83;;
10987;SDS011;5547;42.672;23.230;2023-09-18T01:27:33;37.95;;;24.38;;
10987;SDS011;5547;42.672;23.230;2023-09-18T01:30:35;36.83;;;24.67;;
10987;SDS011;5547;42.672;23.230;2023-09-18T01:33:38;35.20;;;24.43;;
10987;SDS011;5547;42.672;23.230;2023-09-18T01:36:48;37.78;;;24.52;;
10987;SDS011;5547;42.672;23.230;2023-09-18T01:43:05;35.00;;;24.77;;
10987;SDS011;5547;42.672;23.230;2023-09-18T01:53:02;38.70;;;25.73;;
10987;SDS011;5547;42.672;23.230;2023-09-18T01:59:15;43.37;;;26.67;;
10987;SDS011;5547;42.672;23.230;2023-09-18T02:02:24;42.70;;;27.13;;
10987;SDS011;5547;42.672;23.230;2023-09-18T02:05:25;41.85;;;27.92;;
10987;SDS011;5547;42.672;23.230;2023-09-18T02:08:39;43.00;;;27.47;;
10987;SDS011;5547;42.672;23.230;2023-09-18T02:12:27;47.33;;;28.45;;
10987;SDS011;5547;42.672;23.230;2023-09-18T02:15:28;46.92;;;29.42;;
10987;SDS011;5547;42.672;23.230;2023-09-18T02:21:39;46.08;;;27.92;;
10987;SDS011;5547;42.672;23.230;2023-09-18T02:24:40;47.30;;;29.27;;
10987;SDS011;5547;42.672;23.230;2023-09-18T02:27:41;49.03;;;29.40;;
10987;SDS011;5547;42.672;23.230;2023-09-18T02:30:43;46.67;;;29.13;;
10987;SDS011;5547;42.672;23.230;2023-09-18T02:33:45;46.70;;;28.33;;
10987;SDS011;5547;42.672;23.230;2023-09-18T02:36:46;50.15;;;28.10;;
10987;SDS011;5547;42.672;23.230;2023-09-18T02:39:47;54.43;;;30.80;;
10987;SDS011;5547;42.672;23.230;2023-09-18T02:45:54;51.70;;;30.50;;
10987;SDS011;5547;42.672;23.230;2023-09-18T02:49:07;47.75;;;28.05;;
10987;SDS011;5547;42.672;23.230;2023-09-18T02:52:13;48.35;;;28.83;;
10987;SDS011;5547;42.672;23.230;2023-09-18T02:55:13;46.67;;;28.33;;
10987;SDS011;5547;42.672;23.230;2023-09-18T02:58:13;49.47;;;28.07;;
10987;SDS011;5547;42.672;23.230;2023-09-18T03:01:14;44.40;;;27.30;;
10987;SDS011;5547;42.672;23.230;2023-09-18T03:04:17;43.63;;;27.98;;
10987;SDS011;5547;42.672;23.230;2023-09-18T03:07:24;41.50;;;26.80;;
10987;SDS011;5547;42.672;23.230;2023-09-18T03:10:24;41.67;;;26.93;;
10987;SDS011;5547;42.672;23.230;2023-09-18T03:13:33;41.22;;;26.77;;
10987;SDS011;5547;42.672;23.230;2023-09-18T03:16:56;38.80;;;25.92;;
10987;SDS011;5547;42.672;23.230;2023-09-18T03:19:56;36.43;;;25.73;;
10987;SDS011;5547;42.672;23.230;2023-09-18T03:22:57;36.23;;;24.50;;
10987;SDS011;5547;42.672;23.230;2023-09-18T03:25:59;35.20;;;24.10;;
10987;SDS011;5547;42.672;23.230;2023-09-18T03:28:59;33.07;;;24.03;;
10987;SDS011;5547;42.672;23.230;2023-09-18T03:32:00;34.95;;;24.42;;
10987;SDS011;5547;42.672;23.230;2023-09-18T03:35:00;36.20;;;24.80;;
10987;SDS011;5547;42.672;23.230;2023-09-18T03:38:00;35.20;;;23.60;;
10987;SDS011;5547;42.672;23.230;2023-09-18T03:41:01;33.67;;;23.37;;
10987;SDS011;5547;42.672;23.230;2023-09-18T03:44:01;32.47;;;22.53;;
10987;SDS011;5547;42.672;23.230;2023-09-18T03:47:02;33.00;;;23.70;;
10987;SDS011;5547;42.672;23.230;2023-09-18T03:50:04;36.08;;;24.23;;
10987;SDS011;5547;42.672;23.230;2023-09-18T03:53:05;35.65;;;23.90;;
10987;SDS011;5547;42.672;23.230;2023-09-18T03:56:05;36.73;;;24.50;;
10987;SDS011;5547;42.672;23.230;2023-09-18T03:59:06;33.30;;;23.30;;
10987;SDS011;5547;42.672;23.230;2023-09-18T04:02:06;37.92;;;24.73;;
10987;SDS011;5547;42.672;23.230;2023-09-18T04:05:07;38.95;;;25.98;;
10987;SDS011;5547;42.672;23.230;2023-09-18T04:08:07;40.80;;;25.83;;
10987;SDS011;5547;42.672;23.230;2023-09-18T04:11:09;43.40;;;26.73;;
10987;SDS011;5547;42.672;23.230;2023-09-18T04:14:10;37.90;;;24.50;;
10987;SDS011;5547;42.672;23.230;2023-09-18T04:17:10;43.83;;;26.60;;
10987;SDS011;5547;42.672;23.230;2023-09-18T04:20:11;42.50;;;26.00;;
10987;SDS011;5547;42.672;23.230;2023-09-18T04:23:20;40.72;;;26.17;;
10987;SDS011;5547;42.672;23.230;2023-09-18T04:26:25;39.90;;;25.53;;
10987;SDS011;5547;42.672;23.230;2023-09-18T04:29:30;39.47;;;25.95;;
10987;SDS011;5547;42.672;23.230;2023-09-18T04:32:31;38.70;;;25.37;;
10987;SDS011;5547;42.672;23.230;2023-09-18T04:35:31;36.20;;;24.80;;
10987;SDS011;5547;42.672;23.230;2023-09-18T04:38:31;37.75;;;24.80;;
10987;SDS011;5547;42.672;23.230;2023-09-18T04:41:32;38.03;;;24.88;;
10987;SDS011;5547;42.672;23.230;2023-09-18T04:44:33;36.65;;;24.25;;
10987;SDS011;5547;42.672;23.230;2023-09-18T04:47:34;34.23;;;23.67;;
10987;SDS011;5547;42.672;23.230;2023-09-18T04:50:34;34.80;;;23.57;;
10987;SDS011;5547;42.672;23.230;2023-09-18T04:53:35;34.67;;;23.17;;
10987;SDS011;5547;42.672;23.230;2023-09-18T04:56:35;31.45;;;22.45;;
10987;SDS011;5547;42.672;23.230;2023-09-18T04:59:37;31.40;;;22.35;;
10987;SDS011;5547;42.672;23.230;2023-09-18T05:02:37;30.27;;;23.00;;
10987;SDS011;5547;42.672;23.230;2023-09-18T05:05:38;31.07;;;21.80;;
10987;SDS011;5547;42.672;23.230;2023-09-18T05:08:38;29.55;;;21.98;;
10987;SDS011;5547;42.672;23.230;2023-09-18T05:11:39;31.80;;;21.13;;
10987;SDS011;5547;42.672;23.230;2023-09-18T05:14:42;28.07;;;20.87;;
10987;SDS011;5547;42.672;23.230;2023-09-18T05:17:44;29.37;;;21.67;;
10987;SDS011;5547;42.672;23.230;2023-09-18T05:20:52;27.58;;;20.98;;
10987;SDS011;5547;42.672;23.230;2023-09-18T05:23:52;28.87;;;21.23;;
10987;SDS011;5547;42.672;23.230;2023-09-18T05:26:53;31.08;;;21.05;;
10987;SDS011;5547;42.672;23.230;2023-09-18T05:29:54;27.57;;;19.77;;
10987;SDS011;5547;42.672;23.230;2023-09-18T05:32:57;26.13;;;19.53;;
10987;SDS011;5547;42.672;23.230;2023-09-18T05:36:04;28.30;;;20.10;;
10987;SDS011;5547;42.672;23.230;2023-09-18T05:39:05;25.40;;;18.37;;
10987;SDS011;5547;42.672;23.230;2023-09-18T05:42:09;28.75;;;20.40;;
10987;SDS011;5547;42.672;23.230;2023-09-18T05:45:10;28.17;;;20.27;;
10987;SDS011;5547;42.672;23.230;2023-09-18T05:48:11;27.60;;;20.20;;
10987;SDS011;5547;42.672;23.230;2023-09-18T05:51:12;28.77;;;20.77;;
10987;SDS011;5547;42.672;23.230;2023-09-18T05:54:12;30.07;;;21.37;;
10987;SDS011;5547;42.672;23.230;2023-09-18T05:57:13;30.30;;;20.70;;
10987;SDS011;5547;42.672;23.230;2023-09-18T06:00:13;31.95;;;22.45;;
10987;SDS011;5547;42.672;23.230;2023-09-18T06:03:16;32.83;;;22.75;;
10987;SDS011;5547;42.672;23.230;2023-09-18T06:06:18;29.77;;;21.05;;
10987;SDS011;5547;42.672;23.230;2023-09-18T06:09:19;29.20;;;20.60;;
10987;SDS011;5547;42.672;23.230;2023-09-18T06:12:19;31.63;;;22.00;;
10987;SDS011;5547;42.672;23.230;2023-09-18T06:15:21;28.80;;;20.58;;
10987;SDS011;5547;42.672;23.230;2023-09-18T06:18:22;29.60;;;20.80;;
10987;SDS011;5547;42.672;23.230;2023-09-18T06:21:22;28.63;;;20.25;;
10987;SDS011;5547;42.672;23.230;2023-09-18T06:24:23;30.60;;;21.47;;
10987;SDS011;5547;42.672;23.230;2023-09-18T06:27:23;28.97;;;21.57;;
10987;SDS011;5547;42.672;23.230;2023-09-18T06:30:23;32.07;;;21.93;;
10987;SDS011;5547;42.672;23.230;2023-09-18T06:33:24;30.23;;;21.40;;
10987;SDS011;5547;42.672;23.230;2023-09-18T06:36:24;28.80;;;20.27;;
10987;SDS011;5547;42.672;23.230;2023-09-18T06:39:25;25.87;;;18.87;;
10987;SDS011;5547;42.672;23.230;2023-09-18T06:42:26;29.75;;;20.63;;
10987;SDS011;5547;42.672;23.230;2023-09-18T06:45:26;32.20;;;22.13;;
10987;SDS011;5547;42.672;23.230;2023-09-18T06:48:27;28.73;;;20.30;;
10987;SDS011;5547;42.672;23.230;2023-09-18T06:51:32;25.90;;;19.17;;
10987;SDS011;5547;42.672;23.230;2023-09-18T06:54:32;26.70;;;19.57;;
10987;SDS011;5547;42.672;23.230;2023-09-18T06:57:33;24.98;;;18.30;;
10987;SDS011;5547;42.672;23.230;2023-09-18T07:00:34;26.47;;;18.93;;
10987;SDS011;5547;42.672;23.230;2023-09-18T07:03:35;26.33;;;18.02;;
10987;SDS011;5547;42.672;23.230;2023-09-18T07:06:36;26.83;;;18.70;;
10987;SDS011;5547;42.672;23.230;2023-09-18T07:09:37;24.95;;;18.38;;
10987;SDS011;5547;42.672;23.230;2023-09-18T07:12:38;27.13;;;19.60;;
10987;SDS011;5547;42.672;23.230;2023-09-18T07:15:38;25.47;;;18.13;;
10987;SDS011;5547;42.672;23.230;2023-09-18T07:18:38;22.57;;;17.40;;
10987;SDS011;5547;42.672;23.230;2023-09-18T07:21:39;24.80;;;17.13;;
10987;SDS011;5547;42.672;23.230;2023-09-18T07:24:41;22.85;;;17.45;;
10987;SDS011;5547;42.672;23.230;2023-09-18T07:27:42;26.13;;;18.55;;
10987;SDS011;5547;42.672;23.230;2023-09-18T07:30:46;24.87;;;18.23;;
10987;SDS011;5547;42.672;23.230;2023-09-18T07:33:47;25.10;;;17.73;;
10987;SDS011;5547;42.672;23.230;2023-09-18T07:36:48;23.10;;;15.85;;
10987;SDS011;5547;42.672;23.230;2023-09-18T07:39:54;21.50;;;15.52;;
10987;SDS011;5547;42.672;23.230;2023-09-18T07:42:54;21.43;;;15.17;;
10987;SDS011;5547;42.672;23.230;2023-09-18T07:45:54;21.47;;;15.07;;
10987;SDS011;5547;42.672;23.230;2023-09-18T07:48:56;21.10;;;14.82;;
10987;SDS011;5547;42.672;23.230;2023-09-18T07:51:57;22.02;;;14.65;;
10987;SDS011;5547;42.672;23.230;2023-09-18T07:54:57;20.27;;;14.00;;
10987;SDS011;5547;42.672;23.230;2023-09-18T07:57:58;20.90;;;14.63;;
10987;SDS011;5547;42.672;23.230;2023-09-18T08:00:59;20.05;;;14.68;;
10987;SDS011;5547;42.672;23.230;2023-09-18T08:03:59;19.80;;;13.87;;
10987;SDS011;5547;42.672;23.230;2023-09-18T08:07:00;20.73;;;14.82;;
10987;SDS011;5547;42.672;23.230;2023-09-18T08:10:04;19.33;;;14.77;;
10987;SDS011;5547;42.672;23.230;2023-09-18T08:13:06;19.95;;;14.48;;
10987;SDS011;5547;42.672;23.230;2023-09-18T08:16:07;18.60;;;13.85;;
10987;SDS011;5547;42.672;23.230;2023-09-18T08:19:07;19.57;;;14.63;;
10987;SDS011;5547;42.672;23.230;2023-09-18T08:22:08;18.90;;;13.37;;
10987;SDS011;5547;42.672;23.230;2023-09-18T08:25:08;19.43;;;14.00;;
10987;SDS011;5547;42.672;23.230;2023-09-18T08:28:10;19.95;;;13.23;;
10987;SDS011;5547;42.672;23.230;2023-09-18T08:31:10;19.00;;;14.00;;
10987;SDS011;5547;42.672;23.230;2023-09-18T08:34:11;18.27;;;13.57;;
10987;SDS011;5547;42.672;23.230;2023-09-18T08:37:11;16.52;;;11.93;;
10987;SDS011;5547;42.672;23.230;2023-09-18T08:40:13;17.63;;;12.97;;
10987;SDS011;5547;42.672;23.230;2023-09-18T08:43:14;18.60;;;13.73;;
10987;SDS011;5547;42.672;23.230;2023-09-18T08:46:16;17.55;;;13.43;;
10987;SDS011;5547;42.672;23.230;2023-09-18T08:49:17;18.97;;;14.20;;
10987;SDS011;5547;42.672;23.230;2023-09-18T08:52:17;17.77;;;12.07;;
10987;SDS011;5547;42.672;23.230;2023-09-18T08:55:18;17.60;;;12.90;;
10987;SDS011;5547;42.672;23.230;2023-09-18T08:58:19;16.55;;;12.02;;
10987;SDS011;5547;42.672;23.230;2023-09-18T09:01:22;14.98;;;12.25;;
10987;SDS011;5547;42.672;23.230;2023-09-18T09:04:22;16.17;;;11.83;;
10987;SDS011;5547;42.672;23.230;2023-09-18T09:07:23;15.90;;;12.40;;
10987;SDS011;5547;42.672;23.230;2023-09-18T09:10:23;17.55;;;11.98;;
10987;SDS011;5547;42.672;23.230;2023-09-18T09:13:25;17.70;;;13.70;;
10987;SDS011;5547;42.672;23.230;2023-09-18T09:16:26;16.90;;;12.20;;
10987;SDS011;5547;42.672;23.230;2023-09-18T09:19:33;18.20;;;13.17;;
10987;SDS011;5547;42.672;23.230;2023-09-18T09:22:39;13.70;;;10.35;;
10987;SDS011;5547;42.672;23.230;2023-09-18T09:25:40;15.85;;;11.02;;
10987;SDS011;5547;42.672;23.230;2023-09-18T09:28:41;16.27;;;11.43;;
10987;SDS011;5547;42.672;23.230;2023-09-18T09:31:43;12.15;;;9.05;;
10987;SDS011;5547;42.672;23.230;2023-09-18T09:34:45;14.60;;;10.60;;
10987;SDS011;5547;42.672;23.230;2023-09-18T09:37:49;15.80;;;11.07;;
10987;SDS011;5547;42.672;23.230;2023-09-18T09:40:51;12.98;;;8.80;;
10987;SDS011;5547;42.672;23.230;2023-09-18T09:43:53;12.57;;;9.40;;
10987;SDS011;5547;42.672;23.230;2023-09-18T09:46:55;11.57;;;8.35;;
10987;SDS011;5547;42.672;23.230;2023-09-18T09:49:55;10.80;;;8.70;;
10987;SDS011;5547;42.672;23.230;2023-09-18T09:52:55;11.35;;;7.47;;
10987;SDS011;5547;42.672;23.230;2023-09-18T09:55:56;9.40;;;7.88;;
10987;SDS011;5547;42.672;23.230;2023-09-18T09:59:03;11.57;;;8.83;;
10987;SDS011;5547;42.672;23.230;2023-09-18T10:02:08;10.18;;;8.18;;
10987;SDS011;5547;42.672;23.230;2023-09-18T10:05:09;13.37;;;9.70;;
10987;SDS011;5547;42.672;23.230;2023-09-18T10:11:21;10.90;;;7.70;;
10987;SDS011;5547;42.672;23.230;2023-09-18T10:14:30;11.37;;;8.87;;
10987;SDS011;5547;42.672;23.230;2023-09-18T10:17:33;10.88;;;7.68;;
10987;SDS011;5547;42.672;23.230;2023-09-18T10:20:37;11.47;;;8.13;;
10987;SDS011;5547;42.672;23.230;2023-09-18T10:23:46;10.83;;;7.80;;
10987;SDS011;5547;42.672;23.230;2023-09-18T10:27:12;9.77;;;7.82;;
10987;SDS011;5547;42.672;23.230;2023-09-18T10:30:14;10.32;;;8.02;;
10987;SDS011;5547;42.672;23.230;2023-09-18T10:33:18;10.30;;;7.40;;
10987;SDS011;5547;42.672;23.230;2023-09-18T10:36:19;12.70;;;8.40;;
10987;SDS011;5547;42.672;23.230;2023-09-18T10:39:21;12.45;;;8.60;;
10987;SDS011;5547;42.672;23.230;2023-09-18T10:42:24;10.50;;;7.67;;
10987;SDS011;5547;42.672;23.230;2023-09-18T10:45:27;10.23;;;7.80;;
10987;SDS011;5547;42.672;23.230;2023-09-18T10:48:28;10.18;;;7.22;;
10987;SDS011;5547;42.672;23.230;2023-09-18T10:51:28;10.63;;;8.20;;
10987;SDS011;5547;42.672;23.230;2023-09-18T10:54:31;12.02;;;7.88;;
10987;SDS011;5547;42.672;23.230;2023-09-18T10:57:33;11.63;;;8.15;;
10987;SDS011;5547;42.672;23.230;2023-09-18T11:00:35;9.25;;;7.50;;
10987;SDS011;5547;42.672;23.230;2023-09-18T11:03:37;10.40;;;7.90;;
10987;SDS011;5547;42.672;23.230;2023-09-18T11:09:53;9.63;;;7.13;;
10987;SDS011;5547;42.672;23.230;2023-09-18T11:12:53;9.85;;;7.15;;
10987;SDS011;5547;42.672;23.230;2023-09-18T11:19:19;10.55;;;6.97;;
10987;SDS011;5547;42.672;23.230;2023-09-18T11:22:19;8.37;;;6.93;;
10987;SDS011;5547;42.672;23.230;2023-09-18T11:28:40;9.00;;;6.22;;
10987;SDS011;5547;42.672;23.230;2023-09-18T11:35:06;7.75;;;5.57;;
10987;SDS011;5547;42.672;23.230;2023-09-18T11:38:08;7.53;;;6.40;;
10987;SDS011;5547;42.672;23.230;2023-09-18T11:41:19;7.78;;;6.40;;
10987;SDS011;5547;42.672;23.230;2023-09-18T11:47:28;7.05;;;5.90;;
10987;SDS011;5547;42.672;23.230;2023-09-18T11:50:29;6.50;;;5.47;;
10987;SDS011;5547;42.672;23.230;2023-09-18T11:53:33;7.50;;;5.80;;
10987;SDS011;5547;42.672;23.230;2023-09-18T11:56:35;7.15;;;5.85;;
10987;SDS011;5547;42.672;23.230;2023-09-18T11:59:39;7.03;;;5.85;;
10987;SDS011;5547;42.672;23.230;2023-09-18T12:02:46;6.63;;;5.47;;
10987;SDS011;5547;42.672;23.230;2023-09-18T12:05:49;6.22;;;5.35;;
10987;SDS011;5547;42.672;23.230;2023-09-18T12:09:01;6.85;;;5.45;;
10987;SDS011;5547;42.672;23.230;2023-09-18T12:12:04;8.57;;;6.18;;
10987;SDS011;5547;42.672;23.230;2023-09-18T12:15:06;7.90;;;6.57;;
10987;SDS011;5547;42.672;23.230;2023-09-18T12:18:10;9.00;;;6.45;;
10987;SDS011;5547;42.672;23.230;2023-09-18T12:21:15;7.07;;;5.47;;
10987;SDS011;5547;42.672;23.230;2023-09-18T12:24:23;5.50;;;4.85;;
10987;SDS011;5547;42.672;23.230;2023-09-18T12:27:25;8.15;;;7.25;;
10987;SDS011;5547;42.672;23.230;2023-09-18T12:30:27;6.57;;;5.03;;
10987;SDS011;5547;42.672;23.230;2023-09-18T12:33:27;6.00;;;5.07;;
10987;SDS011;5547;42.672;23.230;2023-09-18T12:36:28;6.30;;;5.22;;
10987;SDS011;5547;42.672;23.230;2023-09-18T12:39:33;6.95;;;5.00;;
10987;SDS011;5547;42.672;23.230;2023-09-18T12:42:34;6.55;;;5.10;;
10987;SDS011;5547;42.672;23.230;2023-09-18T12:45:36;6.50;;;5.00;;
10987;SDS011;5547;42.672;23.230;2023-09-18T12:48:37;7.57;;;5.43;;
10987;SDS011;5547;42.672;23.230;2023-09-18T12:51:39;7.32;;;5.63;;
10987;SDS011;5547;42.672;23.230;2023-09-18T12:54:45;7.35;;;6.13;;
10987;SDS011;5547;42.672;23.230;2023-09-18T12:57:53;7.15;;;6.20;;
10987;SDS011;5547;42.672;23.230;2023-09-18T13:01:03;6.75;;;6.03;;
10987;SDS011;5547;42.672;23.230;2023-09-18T13:04:12;8.38;;;6.22;;
10987;SDS011;5547;42.672;23.230;2023-09-18T13:10:17;7.15;;;6.05;;
10987;SDS011;5547;42.672;23.230;2023-09-18T13:13:18;6.50;;;5.70;;
10987;SDS011;5547;42.672;23.230;2023-09-18T13:16:21;6.72;;;5.47;;
10987;SDS011;5547;42.672;23.230;2023-09-18T13:19:22;6.40;;;5.45;;
10987;SDS011;5547;42.672;23.230;2023-09-18T13:22:23;7.90;;;5.47;;
10987;SDS011;5547;42.672;23.230;2023-09-18T13:25:28;7.97;;;5.70;;
10987;SDS011;5547;42.672;23.230;2023-09-18T13:28:30;8.10;;;5.85;;
10987;SDS011;5547;42.672;23.230;2023-09-18T13:31:32;7.05;;;5.63;;
10987;SDS011;5547;42.672;23.230;2023-09-18T13:34:33;7.57;;;6.13;;
10987;SDS011;5547;42.672;23.230;2023-09-18T13:37:34;7.10;;;5.43;;
10987;SDS011;5547;42.672;23.230;2023-09-18T13:40:35;7.78;;;5.47;;
10987;SDS011;5547;42.672;23.230;2023-09-18T13:43:38;6.45;;;5.63;;
10987;SDS011;5547;42.672;23.230;2023-09-18T13:46:39;8.53;;;6.00;;
10987;SDS011;5547;42.672;23.230;2023-09-18T13:49:39;9.43;;;5.80;;
10987;SDS011;5547;42.672;23.230;2023-09-18T13:52:39;8.00;;;5.47;;
10987;SDS011;5547;42.672;23.230;2023-09-18T13:55:40;6.77;;;6.00;;
10987;SDS011;5547;42.672;23.230;2023-09-18T13:58:41;6.93;;;5.88;;
10987;SDS011;5547;42.672;23.230;2023-09-18T14:01:41;6.53;;;5.40;;
10987;SDS011;5547;42.672;23.230;2023-09-18T14:04:42;6.05;;;5.45;;
10987;SDS011;5547;42.672;23.230;2023-09-18T14:07:42;7.85;;;5.97;;
10987;SDS011;5547;42.672;23.230;2023-09-18T14:10:43;8.37;;;5.43;;
10987;SDS011;5547;42.672;23.230;2023-09-18T14:13:44;6.22;;;5.63;;
10987;SDS011;5547;42.672;23.230;2023-09-18T14:16:44;7.73;;;5.57;;
10987;SDS011;5547;42.672;23.230;2023-09-18T14:19:45;6.40;;;5.03;;
10987;SDS011;5547;42.672;23.230;2023-09-18T14:22:46;6.53;;;5.27;;
10987;SDS011;5547;42.672;23.230;2023-09-18T14:25:50;6.20;;;5.15;;
10987;SDS011;5547;42.672;23.230;2023-09-18T14:28:51;8.10;;;5.20;;
10987;SDS011;5547;42.672;23.230;2023-09-18T14:31:52;6.07;;;5.32;;
10987;SDS011;5547;42.672;23.230;2023-09-18T14:34:52;7.38;;;5.90;;
10987;SDS011;5547;42.672;23.230;2023-09-18T14:37:54;7.78;;;6.10;;
10987;SDS011;5547;42.672;23.230;2023-09-18T14:40:54;7.00;;;5.73;;
10987;SDS011;5547;42.672;23.230;2023-09-18T14:44:06;8.30;;;5.93;;
10987;SDS011;5547;42.672;23.230;2023-09-18T14:47:08;7.43;;;5.97;;
10987;SDS011;5547;42.672;23.230;2023-09-18T14:50:09;6.87;;;5.77;;
10987;SDS011;5547;42.672;23.230;2023-09-18T14:53:09;6.63;;;5.22;;
10987;SDS011;5547;42.672;23.230;2023-09-18T14:56:10;8.07;;;5.67;;
10987;SDS011;5547;42.672;23.230;2023-09-18T14:59:10;6.53;;;5.63;;
10987;SDS011;5547;42.672;23.230;2023-09-18T15:02:10;8.47;;;5.63;;
10987;SDS011;5547;42.672;23.230;2023-09-18T15:05:12;7.32;;;5.40;;
10987;SDS011;5547;42.672;23.230;2023-09-18T15:08:15;7.65;;;5.43;;
10987;SDS011;5547;42.672;23.230;2023-09-18T15:11:15;8.27;;;5.32;;
10987;SDS011;5547;42.672;23.230;2023-09-18T15:14:19;8.23;;;5.15;;
10987;SDS011;5547;42.672;23.230;2023-09-18T15:17:19;7.43;;;5.97;;
10987;SDS011;5547;42.672;23.230;2023-09-18T15:20:20;8.90;;;5.97;;
10987;SDS011;5547;42.672;23.230;2023-09-18T15:23:24;6.40;;;5.30;;
10987;SDS011;5547;42.672;23.230;2023-09-18T15:26:24;10.85;;;5.88;;
10987;SDS011;5547;42.672;23.230;2023-09-18T15:29:25;8.60;;;5.82;;
10987;SDS011;5547;42.672;23.230;2023-09-18T15:32:28;7.47;;;5.70;;
10987;SDS011;5547;42.672;23.230;2023-09-18T15:35:28;6.77;;;5.30;;
10987;SDS011;5547;42.672;23.230;2023-09-18T15:38:29;7.13;;;4.83;;
10987;SDS011;5547;42.672;23.230;2023-09-18T15:41:29;5.72;;;4.90;;
10987;SDS011;5547;42.672;23.230;2023-09-18T15:44:30;6.93;;;5.20;;
10987;SDS011;5547;42.672;23.230;2023-09-18T15:47:31;6.40;;;5.30;;
10987;SDS011;5547;42.672;23.230;2023-09-18T15:50:31;7.17;;;5.17;;
10987;SDS011;5547;42.672;23.230;2023-09-18T15:53:32;7.00;;;5.88;;
10987;SDS011;5547;42.672;23.230;2023-09-18T15:56:32;6.37;;;5.37;;
10987;SDS011;5547;42.672;23.230;2023-09-18T15:59:33;8.80;;;5.88;;
10987;SDS011;5547;42.672;23.230;2023-09-18T16:02:37;8.20;;;5.88;;
10987;SDS011;5547;42.672;23.230;2023-09-18T16:05:39;6.82;;;5.93;;
10987;SDS011;5547;42.672;23.230;2023-09-18T16:08:39;8.23;;;6.78;;
10987;SDS011;5547;42.672;23.230;2023-09-18T16:11:40;7.70;;;6.47;;
10987;SDS011;5547;42.672;23.230;2023-09-18T16:14:41;7.45;;;6.57;;
10987;SDS011;5547;42.672;23.230;2023-09-18T16:17:41;7.93;;;6.10;;
10987;SDS011;5547;42.672;23.230;2023-09-18T16:20:41;7.43;;;6.40;;
10987;SDS011;5547;42.672;23.230;2023-09-18T16:23:42;7.70;;;6.80;;
10987;SDS011;5547;42.672;23.230;2023-09-18T16:26:42;7.50;;;6.70;;
10987;SDS011;5547;42.672;23.230;2023-09-18T16:29:42;8.00;;;6.77;;
10987;SDS011;5547;42.672;23.230;2023-09-18T16:32:43;7.93;;;6.63;;
10987;SDS011;5547;42.672;23.230;2023-09-18T16:35:44;8.07;;;6.80;;
10987;SDS011;5547;42.672;23.230;2023-09-18T16:38:50;7.97;;;7.00;;
10987;SDS011;5547;42.672;23.230;2023-09-18T16:41:51;8.55;;;7.05;;
10987;SDS011;5547;42.672;23.230;2023-09-18T16:44:52;9.88;;;7.13;;
10987;SDS011;5547;42.672;23.230;2023-09-18T16:47:53;7.93;;;6.93;;
10987;SDS011;5547;42.672;23.230;2023-09-18T16:50:53;8.60;;;6.70;;
10987;SDS011;5547;42.672;23.230;2023-09-18T16:53:54;8.63;;;6.60;;
10987;SDS011;5547;42.672;23.230;2023-09-18T16:56:55;8.30;;;7.20;;
10987;SDS011;5547;42.672;23.230;2023-09-18T16:59:55;7.53;;;6.57;;
10987;SDS011;5547;42.672;23.230;2023-09-18T17:02:56;8.53;;;6.60;;
10987;SDS011;5547;42.672;23.230;2023-09-18T17:05:56;7.72;;;6.22;;
10987;SDS011;5547;42.672;23.230;2023-09-18T17:08:57;7.22;;;6.40;;
10987;SDS011;5547;42.672;23.230;2023-09-18T17:11:57;8.77;;;6.43;;
10987;SDS011;5547;42.672;23.230;2023-09-18T17:14:57;8.83;;;6.37;;
10987;SDS011;5547;42.672;23.230;2023-09-18T17:17:58;8.53;;;6.40;;
10987;SDS011;5547;42.672;23.230;2023-09-18T17:21:00;9.27;;;6.88;;
10987;SDS011;5547;42.672;23.230;2023-09-18T17:24:00;8.43;;;6.83;;
10987;SDS011;5547;42.672;23.230;2023-09-18T17:27:01;9.60;;;6.90;;
10987;SDS011;5547;42.672;23.230;2023-09-18T17:30:02;8.43;;;6.50;;
10987;SDS011;5547;42.672;23.230;2023-09-18T17:33:04;8.05;;;7.00;;
10987;SDS011;5547;42.672;23.230;2023-09-18T17:36:05;8.83;;;7.20;;
10987;SDS011;5547;42.672;23.230;2023-09-18T17:39:08;9.50;;;7.25;;
10987;SDS011;5547;42.672;23.230;2023-09-18T17:42:10;10.02;;;7.40;;
10987;SDS011;5547;42.672;23.230;2023-09-18T17:45:11;9.90;;;7.82;;
10987;SDS011;5547;42.672;23.230;2023-09-18T17:48:12;8.57;;;6.57;;
10987;SDS011;5547;42.672;23.230;2023-09-18T17:51:12;8.13;;;6.85;;
10987;SDS011;5547;42.672;23.230;2023-09-18T17:54:14;8.83;;;7.23;;
10987;SDS011;5547;42.672;23.230;2023-09-18T17:57:15;9.05;;;7.45;;
10987;SDS011;5547;42.672;23.230;2023-09-18T18:00:15;10.00;;;7.43;;
10987;SDS011;5547;42.672;23.230;2023-09-18T18:03:16;8.20;;;7.30;;
10987;SDS011;5547;42.672;23.230;2023-09-18T18:06:17;8.80;;;7.40;;
10987;SDS011;5547;42.672;23.230;2023-09-18T18:09:18;9.97;;;7.50;;
10987;SDS011;5547;42.672;23.230;2023-09-18T18:12:19;10.15;;;7.40;;
10987;SDS011;5547;42.672;23.230;2023-09-18T18:15:19;8.37;;;7.30;;
10987;SDS011;5547;42.672;23.230;2023-09-18T18:18:20;10.60;;;7.55;;
10987;SDS011;5547;42.672;23.230;2023-09-18T18:21:20;8.43;;;7.40;;
10987;SDS011;5547;42.672;23.230;2023-09-18T18:24:21;8.70;;;7.20;;
10987;SDS011;5547;42.672;23.230;2023-09-18T18:27:22;9.38;;;7.82;;
10987;SDS011;5547;42.672;23.230;2023-09-18T18:30:22;8.17;;;7.33;;
10987;SDS011;5547;42.672;23.230;2023-09-18T18:33:22;10.47;;;8.07;;
10987;SDS011;5547;42.672;23.230;2023-09-18T18:36:23;8.80;;;7.43;;
10987;SDS011;5547;42.672;23.230;2023-09-18T18:39:23;10.33;;;8.43;;
10987;SDS011;5547;42.672;23.230;2023-09-18T18:42:24;11.37;;;7.87;;
10987;SDS011;5547;42.672;23.230;2023-09-18T18:45:24;10.83;;;8.43;;